Time;durP1;ratioP1;P1;durP2;ratioP2;P2;SDS_P1;SDS_P2;PMS_P1;PMS_P2;Temp;Humidity;BMP_temperature;BMP_pressure;BME280_temperature;BME280_humidity;BME280_pressure;Samples;Min_cycle;Max_cycle;Signal;HPM_P1;HPM_P2
2022/11/17 00:01:18;;;;;;;;;;;24.80;77.40;;;;;;5063725;28;20048;-74
2022/11/17 00:03:46;;;;;;;;;;;24.70;75.20;;;;;;5067786;28;19984;-74
2022/11/17 00:06:13;;;;;;;;;;;24.60;75.40;;;;;;5069967;28;19921;-74
2022/11/17 00:08:40;;;;;;;;;;;24.60;75.90;;;;;;5066735;28;19924;-74
2022/11/17 00:11:06;;;;;;;;;;;24.70;76.60;;;;;;5072265;28;19916;-73
2022/11/17 00:16:18;;;;;;;;;;;24.90;75.40;;;;;;5066481;28;20000;-74
2022/11/17 00:21:30;;;;;;;;;;;25.30;78.80;;;;;;5066747;28;19979;-76
2022/11/17 00:23:57;;;;;;;;;;;25.30;74.90;;;;;;5066081;28;19935;-74
2022/11/17 00:26:25;;;;;;;;;;;25.50;76.00;;;;;;5061404;28;20337;-74
2022/11/17 00:28:53;;;;;;;;;;;25.50;74.30;;;;;;5068363;28;19916;-76
2022/11/17 00:34:05;;;;;;;;;;;25.60;75.00;;;;;;5063267;28;20011;-76
2022/11/17 00:36:42;;;;;;;;;;;25.60;73.80;;;;;;5060008;28;19983;-76
2022/11/17 00:39:09;;;;;;;;;;;25.60;73.70;;;;;;5067095;28;20286;-75
2022/11/17 00:41:35;;;;;;;;;;;25.90;73.50;;;;;;5061224;28;19928;-76
2022/11/17 00:44:02;;;;;;;;;;;26.10;76.40;;;;;;5068877;28;20334;-75
2022/11/17 00:46:29;;;;;;;;;;;26.10;74.70;;;;;;5070416;28;20019;-76
2022/11/17 00:48:56;;;;;;;;;;;26.20;75.60;;;;;;5069578;28;20338;-74
2022/11/17 00:51:24;;;;;;;;;;;26.60;75.80;;;;;;5071581;28;20030;-75
2022/11/17 00:53:51;;;;;;;;;;;26.50;72.20;;;;;;5069050;28;19912;-75
2022/11/17 00:56:17;;;;;;;;;;;26.50;74.20;;;;;;5069788;28;19916;-76
2022/11/17 00:58:44;;;;;;;;;;;26.50;74.60;;;;;;5072889;28;19923;-75
2022/11/17 01:01:11;;;;;;;;;;;26.50;72.60;;;;;;5068665;28;19977;-75
2022/11/17 01:03:38;;;;;;;;;;;26.60;71.70;;;;;;5070132;28;19927;-73
2022/11/17 01:06:09;;;;;;;;;;;26.80;71.20;;;;;;5071784;28;19912;-73
2022/11/17 01:08:36;;;;;;;;;;;26.60;71.30;;;;;;5064026;28;19925;-74
2022/11/17 01:11:07;;;;;;;;;;;25.70;71.20;;;;;;5068285;28;19991;-73
2022/11/17 01:13:33;;;;;;;;;;;24.80;71.80;;;;;;5060539;28;19916;-74
2022/11/17 01:16:13;;;;;;;;;;;24.60;75.30;;;;;;5068009;28;19917;-71
2022/11/17 01:18:40;;;;;;;;;;;25.20;73.80;;;;;;5071532;28;19913;-73
2022/11/17 01:21:10;;;;;;;;;;;25.60;72.50;;;;;;5066829;28;20379;-70
2022/11/17 01:23:38;;;;;;;;;;;25.50;72.00;;;;;;5071714;28;19916;-74
2022/11/17 01:26:07;;;;;;;;;;;25.60;69.80;;;;;;5065178;28;19924;-74
2022/11/17 01:28:34;;;;;;;;;;;25.60;75.50;;;;;;5068397;28;20445;-72
2022/11/17 01:31:05;;;;;;;;;;;25.50;73.00;;;;;;5067242;28;19913;-73
2022/11/17 01:33:32;;;;;;;;;;;25.50;71.30;;;;;;5068785;28;20271;-73
2022/11/17 01:36:03;;;;;;;;;;;25.80;72.50;;;;;;5060686;28;19920;-73
2022/11/17 01:38:30;;;;;;;;;;;26.20;72.50;;;;;;5067898;28;19920;-73
2022/11/17 01:40:58;;;;;;;;;;;26.40;71.20;;;;;;5064893;28;19913;-74
2022/11/17 01:43:43;;;;;;;;;;;26.30;72.80;;;;;;5068306;28;19970;-75
2022/11/17 01:46:30;;;;;;;;;;;26.50;72.70;;;;;;5068462;28;19936;-72
2022/11/17 01:48:59;;;;;;;;;;;26.90;72.60;;;;;;5064273;28;19966;-73
2022/11/17 01:51:26;;;;;;;;;;;27.30;72.30;;;;;;5062570;28;19999;-74
2022/11/17 01:53:53;;;;;;;;;;;27.60;72.50;;;;;;5069883;28;19912;-74
2022/11/17 01:56:24;;;;;;;;;;;27.80;69.30;;;;;;5062477;28;19919;-74
2022/11/17 01:58:54;;;;;;;;;;;27.70;67.20;;;;;;5065708;28;19913;-73
2022/11/17 02:01:20;;;;;;;;;;;27.40;68.60;;;;;;5068955;28;20011;-74
2022/11/17 02:03:48;;;;;;;;;;;26.70;68.40;;;;;;5070981;28;19923;-74
2022/11/17 02:06:17;;;;;;;;;;;26.50;71.70;;;;;;5068353;28;19928;-73
2022/11/17 02:08:45;;;;;;;;;;;26.80;72.60;;;;;;5068947;28;19921;-76
2022/11/17 02:11:13;;;;;;;;;;;27.20;70.00;;;;;;5066438;28;20291;-72
2022/11/17 02:13:40;;;;;;;;;;;26.90;67.20;;;;;;5060763;28;20015;-74
2022/11/17 02:16:16;;;;;;;;;;;26.30;69.00;;;;;;5066012;28;19998;-73
2022/11/17 02:18:45;;;;;;;;;;;25.90;70.00;;;;;;5071097;28;20274;-74
2022/11/17 02:21:29;;;;;;;;;;;25.50;69.60;;;;;;5066657;28;20424;-74
2022/11/17 02:24:14;;;;;;;;;;;25.50;70.60;;;;;;5066607;28;19928;-73
2022/11/17 02:26:56;;;;;;;;;;;26.00;73.10;;;;;;5066603;28;19912;-73
2022/11/17 02:29:37;;;;;;;;;;;26.70;71.00;;;;;;5070664;28;19920;-73
2022/11/17 02:32:08;;;;;;;;;;;26.60;69.50;;;;;;5070968;28;19919;-74
2022/11/17 02:34:38;;;;;;;;;;;26.70;70.50;;;;;;5068059;28;19917;-73
2022/11/17 02:37:18;;;;;;;;;;;26.50;69.30;;;;;;5072103;28;19913;-73
2022/11/17 02:39:55;;;;;;;;;;;26.50;70.60;;;;;;5070399;28;20290;-73
2022/11/17 02:44:02;;;;;;;;;;;26.60;70.60;;;;;;5071446;28;19912;-72
2022/11/17 02:45:09;;;;;;;;;;;26.50;68.60;;;;;;5066342;28;19986;-72
2022/11/17 02:47:38;;;;;;;;;;;26.20;70.30;;;;;;5064173;28;20386;-73
2022/11/17 02:50:06;;;;;;;;;;;26.00;68.50;;;;;;5068338;28;20337;-73
2022/11/17 02:52:33;;;;;;;;;;;25.60;69.50;;;;;;5070380;28;19913;-74
2022/11/17 02:55:04;;;;;;;;;;;25.20;67.50;;;;;;5069223;28;20019;-73
2022/11/17 02:57:31;;;;;;;;;;;25.00;70.00;;;;;;5070479;28;19916;-74
2022/11/17 03:00:05;;;;;;;;;;;24.70;69.80;;;;;;5066332;28;19922;-75
2022/11/17 03:02:47;;;;;;;;;;;24.30;71.00;;;;;;5071986;28;19920;-76
2022/11/17 03:05:23;;;;;;;;;;;23.80;72.10;;;;;;5068689;28;19920;-74
2022/11/17 03:07:49;;;;;;;;;;;23.90;73.50;;;;;;5069008;28;20278;-73
2022/11/17 03:10:20;;;;;;;;;;;23.80;73.70;;;;;;5069529;28;19932;-74
2022/11/17 03:12:52;;;;;;;;;;;23.70;73.60;;;;;;5071362;28;19908;-74
2022/11/17 03:15:19;;;;;;;;;;;23.70;73.70;;;;;;5063729;28;19917;-73
2022/11/17 03:17:57;;;;;;;;;;;23.80;74.50;;;;;;5066483;28;19956;-74
2022/11/17 03:20:52;;;;;;;;;;;23.70;74.40;;;;;;5069044;28;19912;-73
2022/11/17 03:23:23;;;;;;;;;;;23.70;73.90;;;;;;5052705;28;19970;-72
2022/11/17 03:25:53;;;;;;;;;;;23.60;74.30;;;;;;5067591;28;19916;-74
2022/11/17 03:28:22;;;;;;;;;;;23.50;73.70;;;;;;5068232;28;19931;-73
2022/11/17 03:30:49;;;;;;;;;;;23.40;74.10;;;;;;5067902;28;19916;-73
2022/11/17 03:33:20;;;;;;;;;;;23.10;75.30;;;;;;5069402;28;20317;-73
2022/11/17 03:35:50;;;;;;;;;;;22.90;75.90;;;;;;5066922;28;19917;-73
2022/11/17 03:38:19;;;;;;;;;;;22.70;76.30;;;;;;5067998;28;20329;-74
2022/11/17 03:40:48;;;;;;;;;;;22.30;77.10;;;;;;5070422;28;20015;-74
2022/11/17 03:43:16;;;;;;;;;;;22.20;77.50;;;;;;5059309;28;20355;-74
2022/11/17 03:45:54;;;;;;;;;;;22.50;77.10;;;;;;5068976;28;19923;-74
2022/11/17 03:48:25;;;;;;;;;;;23.00;76.30;;;;;;5070563;28;19916;-74
2022/11/17 03:50:51;;;;;;;;;;;23.50;76.90;;;;;;5068937;28;19912;-74
2022/11/17 03:53:19;;;;;;;;;;;23.50;76.10;;;;;;5070505;28;20274;-73
2022/11/17 03:55:54;;;;;;;;;;;23.30;76.20;;;;;;5068520;28;19942;-74
2022/11/17 03:58:21;;;;;;;;;;;23.10;77.10;;;;;;5060978;28;20018;-74
2022/11/17 04:00:50;;;;;;;;;;;23.60;76.40;;;;;;5068124;28;19916;-75
2022/11/17 04:03:17;;;;;;;;;;;24.10;75.10;;;;;;5070615;28;19909;-75
2022/11/17 04:05:43;;;;;;;;;;;24.40;75.50;;;;;;5067651;28;19916;-75
2022/11/17 04:08:10;;;;;;;;;;;24.60;75.90;;;;;;5070480;28;19965;-74
2022/11/17 04:15:55;;;;;;;;;;;24.60;74.70;;;;;;5066048;28;19963;-74
2022/11/17 04:16:08;;;;;;;;;;;24.60;75.50;;;;;;5062600;28;20282;-73
2022/11/17 04:18:34;;;;;;;;;;;24.50;74.90;;;;;;5070861;28;20361;-74
2022/11/17 04:21:01;;;;;;;;;;;24.20;74.90;;;;;;5063891;28;19912;-73
2022/11/17 04:23:28;;;;;;;;;;;24.10;75.50;;;;;;5059626;28;19985;-74
2022/11/17 04:28:45;;;;;;;;;;;24.00;75.80;;;;;;5070298;28;19935;-72
2022/11/17 04:31:13;;;;;;;;;;;24.10;75.80;;;;;;5067164;28;19919;-74
2022/11/17 04:33:49;;;;;;;;;;;23.90;75.90;;;;;;5064652;28;20745;-74
2022/11/17 04:36:18;;;;;;;;;;;24.00;76.60;;;;;;5069473;28;20296;-75
2022/11/17 04:38:45;;;;;;;;;;;24.10;76.30;;;;;;5070796;28;19916;-75
2022/11/17 04:43:58;;;;;;;;;;;24.20;77.60;;;;;;5070392;28;20421;-75
2022/11/17 04:46:25;;;;;;;;;;;24.20;76.10;;;;;;5063545;28;19955;-77
2022/11/17 04:48:53;;;;;;;;;;;24.20;76.80;;;;;;5065894;28;19913;-74
2022/11/17 04:51:20;;;;;;;;;;;24.20;76.60;;;;;;5059879;28;19916;-73
2022/11/17 04:53:47;;;;;;;;;;;24.40;76.30;;;;;;5068577;28;19916;-74
2022/11/17 04:56:14;;;;;;;;;;;24.40;76.60;;;;;;5065458;28;19912;-74
2022/11/17 04:58:41;;;;;;;;;;;24.30;76.00;;;;;;5067061;28;19916;-74
2022/11/17 05:01:16;;;;;;;;;;;24.10;77.70;;;;;;5057358;28;20406;-74
2022/11/17 05:03:44;;;;;;;;;;;23.80;76.90;;;;;;5066597;28;19921;-73
2022/11/17 05:06:12;;;;;;;;;;;23.50;77.50;;;;;;5063608;28;19955;-73
2022/11/17 05:08:39;;;;;;;;;;;23.30;77.60;;;;;;5066127;28;20049;-74
2022/11/17 05:13:50;;;;;;;;;;;23.10;78.00;;;;;;5066754;28;19959;-73
2022/11/17 05:19:03;;;;;;;;;;;22.60;79.00;;;;;;5064740;28;19962;-73
2022/11/17 05:21:30;;;;;;;;;;;22.50;79.00;;;;;;5064153;28;19963;-72
2022/11/17 05:23:56;;;;;;;;;;;22.80;78.70;;;;;;5054941;28;20271;-71
2022/11/17 05:26:24;;;;;;;;;;;22.90;77.80;;;;;;5071345;28;20377;-74
2022/11/17 05:28:51;;;;;;;;;;;22.70;78.50;;;;;;5070413;28;19968;-72
2022/11/17 05:31:18;;;;;;;;;;;22.80;80.40;;;;;;5071568;28;20341;-71
2022/11/17 05:33:44;;;;;;;;;;;22.90;80.10;;;;;;5069377;28;19923;-72
2022/11/17 05:36:12;;;;;;;;;;;23.00;79.90;;;;;;5069994;28;20002;-72
2022/11/17 05:38:39;;;;;;;;;;;23.10;78.70;;;;;;5071657;28;19970;-73
2022/11/17 05:41:05;;;;;;;;;;;23.00;78.20;;;;;;5067069;28;19913;-72
2022/11/17 05:43:32;;;;;;;;;;;22.80;78.00;;;;;;5063723;28;19966;-73
2022/11/17 05:45:59;;;;;;;;;;;22.80;78.30;;;;;;5068110;28;19962;-70
2022/11/17 05:48:26;;;;;;;;;;;22.70;78.30;;;;;;5067092;28;19965;-73
2022/11/17 05:50:53;;;;;;;;;;;22.50;78.20;;;;;;5066970;28;19944;-74
2022/11/17 05:53:20;;;;;;;;;;;22.50;78.70;;;;;;5065926;28;19979;-73
2022/11/17 05:55:47;;;;;;;;;;;22.60;79.40;;;;;;5070644;28;20008;-75
2022/11/17 05:58:17;;;;;;;;;;;22.30;79.20;;;;;;5069476;28;19918;-74
2022/11/17 06:00:44;;;;;;;;;;;22.10;78.90;;;;;;5071728;28;20282;-75
2022/11/17 06:03:19;;;;;;;;;;;21.90;79.50;;;;;;5066183;28;20406;-74
2022/11/17 06:05:46;;;;;;;;;;;21.60;80.70;;;;;;5066456;28;20750;-72
2022/11/17 06:08:13;;;;;;;;;;;21.40;79.90;;;;;;5067889;28;19928;-74
2022/11/17 06:10:40;;;;;;;;;;;21.30;81.10;;;;;;5071854;28;19916;-74
2022/11/17 06:13:07;;;;;;;;;;;21.20;80.90;;;;;;5063807;28;19913;-73
2022/11/17 06:15:34;;;;;;;;;;;21.10;81.30;;;;;;5062253;28;19920;-73
2022/11/17 06:18:03;;;;;;;;;;;21.20;82.00;;;;;;5071042;28;20048;-73
2022/11/17 06:20:40;;;;;;;;;;;21.40;82.60;;;;;;5065211;28;20049;-72
2022/11/17 06:23:08;;;;;;;;;;;21.50;81.50;;;;;;5041669;28;19935;-75
2022/11/17 06:25:36;;;;;;;;;;;21.60;81.10;;;;;;5065484;28;20336;-72
2022/11/17 06:28:03;;;;;;;;;;;21.50;81.20;;;;;;5070969;28;20272;-73
2022/11/17 06:30:30;;;;;;;;;;;21.50;82.00;;;;;;5068950;28;19912;-73
2022/11/17 06:32:57;;;;;;;;;;;21.40;82.60;;;;;;5062242;28;19952;-74
2022/11/17 06:35:24;;;;;;;;;;;21.40;83.00;;;;;;5068914;28;19920;-73
2022/11/17 06:37:51;;;;;;;;;;;21.40;82.10;;;;;;5061646;28;19923;-72
2022/11/17 06:40:17;;;;;;;;;;;21.40;82.10;;;;;;5070878;28;19928;-73
2022/11/17 06:43:02;;;;;;;;;;;21.20;82.50;;;;;;5068754;28;20002;-74
2022/11/17 06:45:35;;;;;;;;;;;21.00;83.10;;;;;;5067951;28;20401;-72
2022/11/17 06:48:02;;;;;;;;;;;20.70;83.70;;;;;;5059699;28;19948;-74
2022/11/17 06:50:29;;;;;;;;;;;20.70;84.60;;;;;;5070483;28;19912;-74
2022/11/17 06:52:59;;;;;;;;;;;20.70;84.00;;;;;;5063710;28;19913;-75
2022/11/17 06:55:26;;;;;;;;;;;20.80;83.50;;;;;;5070153;28;19912;-74
2022/11/17 06:57:58;;;;;;;;;;;20.70;83.30;;;;;;5070819;28;19924;-75
2022/11/17 07:00:24;;;;;;;;;;;20.50;83.30;;;;;;5066116;28;19920;-73
2022/11/17 07:02:51;;;;;;;;;;;20.40;84.60;;;;;;5067293;28;20274;-73
2022/11/17 07:05:17;;;;;;;;;;;20.40;84.40;;;;;;5067604;28;20819;-74
2022/11/17 07:07:44;;;;;;;;;;;20.40;84.50;;;;;;5055419;28;19921;-74
2022/11/17 07:10:11;;;;;;;;;;;20.40;84.70;;;;;;5062629;28;19920;-74
2022/11/17 07:12:38;;;;;;;;;;;20.50;84.40;;;;;;5065236;28;19917;-72
2022/11/17 07:15:04;;;;;;;;;;;20.40;83.80;;;;;;5065677;28;20025;-74
2022/11/17 07:17:31;;;;;;;;;;;20.40;84.30;;;;;;5064324;28;19995;-73
2022/11/17 07:19:58;;;;;;;;;;;20.20;84.50;;;;;;5068334;28;19912;-74
2022/11/17 07:22:24;;;;;;;;;;;20.10;84.70;;;;;;5065584;28;19962;-73
2022/11/17 07:24:51;;;;;;;;;;;20.00;84.80;;;;;;5061758;28;19986;-74
2022/11/17 07:27:18;;;;;;;;;;;20.00;85.00;;;;;;5070516;28;19920;-75
2022/11/17 07:29:44;;;;;;;;;;;19.90;85.10;;;;;;5061872;28;20011;-72
2022/11/17 07:32:14;;;;;;;;;;;19.80;85.50;;;;;;5072446;28;20373;-71
2022/11/17 07:34:41;;;;;;;;;;;19.60;85.50;;;;;;5049178;28;19908;-75
2022/11/17 07:37:08;;;;;;;;;;;19.60;85.60;;;;;;5064156;28;20340;-72
2022/11/17 07:39:34;;;;;;;;;;;19.30;86.10;;;;;;5062977;28;19917;-72
2022/11/17 07:42:01;;;;;;;;;;;19.10;87.00;;;;;;5060663;28;20290;-72
2022/11/17 07:44:27;;;;;;;;;;;19.00;87.30;;;;;;5068755;28;20018;-73
2022/11/17 07:46:54;;;;;;;;;;;18.80;87.70;;;;;;5067723;28;20252;-73
2022/11/17 07:49:21;;;;;;;;;;;18.80;88.10;;;;;;5061017;28;19924;-73
2022/11/17 07:51:48;;;;;;;;;;;18.80;87.90;;;;;;5064741;28;19961;-74
2022/11/17 07:54:14;;;;;;;;;;;18.70;88.30;;;;;;5067384;28;19908;-76
2022/11/17 07:56:41;;;;;;;;;;;18.70;88.00;;;;;;5062206;28;19924;-72
2022/11/17 07:59:08;;;;;;;;;;;18.60;88.00;;;;;;5057281;28;19916;-72
2022/11/17 08:01:34;;;;;;;;;;;18.50;88.20;;;;;;5058216;28;19913;-72
2022/11/17 08:04:04;;;;;;;;;;;18.40;88.40;;;;;;5063765;28;19927;-73
2022/11/17 08:06:35;;;;;;;;;;;18.40;88.50;;;;;;5063678;28;19917;-71
2022/11/17 08:09:02;;;;;;;;;;;18.30;88.60;;;;;;5067741;28;20018;-72
2022/11/17 08:11:29;;;;;;;;;;;18.20;89.40;;;;;;5066791;28;20404;-71
2022/11/17 08:13:56;;;;;;;;;;;18.10;89.60;;;;;;5055437;28;19919;-74
2022/11/17 08:16:24;;;;;;;;;;;18.00;89.70;;;;;;5065632;28;19916;-71
2022/11/17 08:18:51;;;;;;;;;;;17.90;90.10;;;;;;5063811;28;19947;-71
2022/11/17 08:21:17;;;;;;;;;;;17.80;90.30;;;;;;5062915;28;20030;-75
2022/11/17 08:23:44;;;;;;;;;;;17.70;90.30;;;;;;5063978;28;20360;-73
2022/11/17 08:26:11;;;;;;;;;;;17.70;90.50;;;;;;5069724;28;19913;-71
2022/11/17 08:28:37;;;;;;;;;;;17.60;90.70;;;;;;5067973;28;20354;-72
2022/11/17 08:31:05;;;;;;;;;;;17.50;90.80;;;;;;5067661;28;19916;-71
2022/11/17 08:33:32;;;;;;;;;;;17.50;90.80;;;;;;5057109;28;20029;-72
2022/11/17 08:35:59;;;;;;;;;;;17.40;90.90;;;;;;5064400;28;19920;-72
2022/11/17 08:38:29;;;;;;;;;;;17.40;91.10;;;;;;5058215;28;20268;-73
2022/11/17 08:40:56;;;;;;;;;;;17.30;91.00;;;;;;5057326;28;19919;-71
2022/11/17 08:43:23;;;;;;;;;;;17.20;91.40;;;;;;5068665;28;19920;-72
2022/11/17 08:45:50;;;;;;;;;;;17.20;91.30;;;;;;5062086;28;19943;-73
2022/11/17 08:48:17;;;;;;;;;;;17.10;91.50;;;;;;5058438;28;19963;-74
2022/11/17 08:50:43;;;;;;;;;;;17.10;91.60;;;;;;5066766;28;19919;-72
2022/11/17 08:53:17;;;;;;;;;;;17.00;91.90;;;;;;5064676;28;20298;-73
2022/11/17 08:55:44;;;;;;;;;;;16.90;92.10;;;;;;5066671;28;19916;-73
2022/11/17 08:58:11;;;;;;;;;;;16.90;92.40;;;;;;5066136;28;19924;-73
2022/11/17 09:00:41;;;;;;;;;;;16.80;92.70;;;;;;5070308;28;20003;-73
2022/11/17 09:03:09;;;;;;;;;;;16.80;92.90;;;;;;5066889;28;19913;-72
2022/11/17 09:05:39;;;;;;;;;;;16.70;93.10;;;;;;5064826;28;19921;-73
2022/11/17 09:08:06;;;;;;;;;;;16.60;93.20;;;;;;5067507;28;20432;-74
2022/11/17 09:10:33;;;;;;;;;;;16.50;93.50;;;;;;5064736;28;19917;-74
2022/11/17 09:13:00;;;;;;;;;;;16.50;93.80;;;;;;5064409;28;20358;-75
2022/11/17 09:15:26;;;;;;;;;;;16.40;94.00;;;;;;5064924;28;19931;-73
2022/11/17 09:17:53;;;;;;;;;;;16.40;94.10;;;;;;5065878;28;19913;-74
2022/11/17 09:20:20;;;;;;;;;;;16.30;94.30;;;;;;5063214;28;19916;-74
2022/11/17 09:22:46;;;;;;;;;;;16.20;94.50;;;;;;5064056;28;20397;-71
2022/11/17 09:25:13;;;;;;;;;;;16.20;94.60;;;;;;5066683;28;20027;-71
2022/11/17 09:27:40;;;;;;;;;;;16.20;94.80;;;;;;5064470;28;19920;-73
2022/11/17 09:30:07;;;;;;;;;;;16.20;94.90;;;;;;5065216;28;19920;-73
2022/11/17 09:32:34;;;;;;;;;;;16.20;95.00;;;;;;5066023;28;20003;-72
2022/11/17 09:35:07;;;;;;;;;;;16.20;95.20;;;;;;5063691;28;19998;-72
2022/11/17 09:37:33;;;;;;;;;;;16.20;95.40;;;;;;5072568;28;19966;-73
2022/11/17 09:40:00;;;;;;;;;;;16.20;95.40;;;;;;5063272;28;19912;-75
2022/11/17 09:42:28;;;;;;;;;;;16.20;95.60;;;;;;5072971;28;19916;-73
2022/11/17 09:44:58;;;;;;;;;;;16.10;95.80;;;;;;5063357;28;19920;-73
2022/11/17 09:47:25;;;;;;;;;;;16.10;95.90;;;;;;5062752;28;19920;-73
2022/11/17 09:50:00;;;;;;;;;;;16.10;96.20;;;;;;5062820;28;19916;-72
2022/11/17 09:52:44;;;;;;;;;;;16.00;96.30;;;;;;5068599;28;19917;-74
2022/11/17 09:55:31;;;;;;;;;;;16.00;96.50;;;;;;5064053;28;21458;-73
2022/11/17 09:58:00;;;;;;;;;;;16.10;96.50;;;;;;5065044;28;19997;-72
2022/11/17 10:00:27;;;;;;;;;;;16.00;96.60;;;;;;5063778;28;19958;-72
2022/11/17 10:02:54;;;;;;;;;;;16.00;96.70;;;;;;5066310;28;19919;-72
2022/11/17 10:05:32;;;;;;;;;;;16.00;96.80;;;;;;5059437;28;19924;-72
2022/11/17 10:08:07;;;;;;;;;;;16.10;97.00;;;;;;5063198;28;20130;-72
2022/11/17 10:10:40;;;;;;;;;;;16.10;97.00;;;;;;5064576;28;19917;-72
2022/11/17 10:13:13;;;;;;;;;;;16.00;97.00;;;;;;5061523;28;19916;-73
2022/11/17 10:15:47;;;;;;;;;;;16.00;97.00;;;;;;5064806;28;19921;-73
2022/11/17 10:18:15;;;;;;;;;;;16.00;97.00;;;;;;5066242;28;19923;-73
2022/11/17 10:20:42;;;;;;;;;;;16.00;97.20;;;;;;5066081;28;19913;-73
2022/11/17 10:23:13;;;;;;;;;;;16.00;97.20;;;;;;5061498;28;20028;-73
2022/11/17 10:25:44;;;;;;;;;;;15.90;97.30;;;;;;5041355;28;20419;-73
2022/11/17 10:28:30;;;;;;;;;;;15.90;97.40;;;;;;5059918;28;19912;-74
2022/11/17 10:31:02;;;;;;;;;;;15.80;97.60;;;;;;5062188;28;20000;-73
2022/11/17 10:33:35;;;;;;;;;;;15.80;97.90;;;;;;5064565;28;19913;-74
2022/11/17 10:36:04;;;;;;;;;;;15.70;98.10;;;;;;5070872;28;19912;-74
2022/11/17 10:38:32;;;;;;;;;;;15.60;98.30;;;;;;5057983;28;19920;-74
2022/11/17 10:41:00;;;;;;;;;;;15.50;98.40;;;;;;5055941;28;19912;-74
2022/11/17 10:43:29;;;;;;;;;;;15.40;98.60;;;;;;5065977;28;20286;-74
2022/11/17 10:46:06;;;;;;;;;;;15.40;99.00;;;;;;5065380;28;19920;-74
2022/11/17 10:48:34;;;;;;;;;;;15.30;99.00;;;;;;5064802;28;20355;-74
2022/11/17 10:51:10;;;;;;;;;;;15.30;99.30;;;;;;5068536;28;20321;-74
2022/11/17 10:53:40;;;;;;;;;;;15.30;99.60;;;;;;5065713;28;19928;-74
2022/11/17 10:56:12;;;;;;;;;;;15.20;99.80;;;;;;5065570;28;20279;-74
2022/11/17 10:58:57;;;;;;;;;;;15.20;99.90;;;;;;5065592;28;19916;-74
2022/11/17 11:01:32;;;;;;;;;;;15.10;99.90;;;;;;5058054;28;19923;-74
2022/11/17 11:03:58;;;;;;;;;;;15.10;99.90;;;;;;5065202;28;19980;-73
2022/11/17 11:06:28;;;;;;;;;;;15.10;99.90;;;;;;5065447;28;19966;-76
2022/11/17 11:09:20;;;;;;;;;;;15.00;99.90;;;;;;5064257;28;19924;-75
2022/11/17 11:11:53;;;;;;;;;;;15.00;99.90;;;;;;5057297;28;19927;-74
2022/11/17 11:14:25;;;;;;;;;;;15.00;99.90;;;;;;5063957;28;19924;-72
2022/11/17 11:16:51;;;;;;;;;;;15.00;99.90;;;;;;5065225;28;20724;-73
2022/11/17 11:19:19;;;;;;;;;;;15.00;99.90;;;;;;5056752;28;19912;-73
2022/11/17 11:21:57;;;;;;;;;;;15.00;99.90;;;;;;5067106;28;19970;-72
2022/11/17 11:24:36;;;;;;;;;;;15.00;99.90;;;;;;5064651;28;20142;-74
2022/11/17 11:27:17;;;;;;;;;;;15.00;99.90;;;;;;5069361;28;20444;-72
2022/11/17 11:29:51;;;;;;;;;;;15.00;99.90;;;;;;5064303;28;20279;-74
2022/11/17 11:32:22;;;;;;;;;;;15.00;99.90;;;;;;5068689;28;19920;-71
2022/11/17 11:34:52;;;;;;;;;;;15.00;99.90;;;;;;5064800;28;19919;-74
2022/11/17 11:37:18;;;;;;;;;;;15.10;99.90;;;;;;5068565;28;20282;-74
2022/11/17 11:39:48;;;;;;;;;;;15.00;99.90;;;;;;5051082;28;19916;-76
2022/11/17 11:42:23;;;;;;;;;;;15.10;99.90;;;;;;5067290;28;20375;-75
2022/11/17 11:44:58;;;;;;;;;;;15.10;99.90;;;;;;5067105;28;20387;-74
2022/11/17 11:47:25;;;;;;;;;;;15.10;99.90;;;;;;5064197;28;19912;-73
2022/11/17 11:49:55;;;;;;;;;;;15.10;99.90;;;;;;5070109;28;19916;-73
2022/11/17 11:52:25;;;;;;;;;;;15.20;99.90;;;;;;5063311;28;19912;-74
2022/11/17 11:54:58;;;;;;;;;;;15.20;99.90;;;;;;5064944;28;21655;-73
2022/11/17 11:57:40;;;;;;;;;;;15.30;99.90;;;;;;5067063;28;19924;-73
2022/11/17 12:00:12;;;;;;;;;;;15.40;99.90;;;;;;5065528;28;19919;-73
2022/11/17 12:02:43;;;;;;;;;;;15.40;99.90;;;;;;5069089;28;19921;-74
2022/11/17 12:05:18;;;;;;;;;;;15.40;99.90;;;;;;5065038;28;19924;-72
2022/11/17 12:08:03;;;;;;;;;;;15.50;99.90;;;;;;5074000;28;19916;-74
2022/11/17 12:10:33;;;;;;;;;;;15.50;99.90;;;;;;5064078;28;20385;-73
2022/11/17 12:13:00;;;;;;;;;;;15.50;99.90;;;;;;5068187;28;19921;-74
2022/11/17 12:15:26;;;;;;;;;;;15.50;99.90;;;;;;5066000;28;19919;-73
2022/11/17 12:18:10;;;;;;;;;;;15.50;99.90;;;;;;5065332;28;19912;-73
2022/11/17 12:20:47;;;;;;;;;;;15.50;99.90;;;;;;5062097;28;20354;-73
2022/11/17 12:23:32;;;;;;;;;;;15.50;99.90;;;;;;5062609;28;20294;-73
2022/11/17 12:26:00;;;;;;;;;;;15.50;99.90;;;;;;5061417;28;19958;-74
2022/11/17 12:28:29;;;;;;;;;;;15.50;99.90;;;;;;5065833;28;20007;-73
2022/11/17 12:30:59;;;;;;;;;;;15.50;99.90;;;;;;5062527;28;19946;-74
2022/11/17 12:33:44;;;;;;;;;;;15.50;99.90;;;;;;5067235;28;20276;-76
2022/11/17 12:36:15;;;;;;;;;;;15.50;99.90;;;;;;5059195;28;19916;-71
2022/11/17 12:38:42;;;;;;;;;;;15.50;99.90;;;;;;5065955;28;20405;-73
2022/11/17 12:41:09;;;;;;;;;;;15.40;99.90;;;;;;5069797;28;19920;-72
2022/11/17 12:43:36;;;;;;;;;;;15.40;99.90;;;;;;5068889;28;19919;-73
2022/11/17 12:46:21;;;;;;;;;;;15.40;99.90;;;;;;5068187;28;20650;-74
2022/11/17 12:49:00;;;;;;;;;;;15.40;99.90;;;;;;5062435;28;19916;-73
2022/11/17 12:51:34;;;;;;;;;;;15.40;99.90;;;;;;5070065;28;19912;-73
2022/11/17 12:54:05;;;;;;;;;;;15.40;99.90;;;;;;5066766;28;19912;-74
2022/11/17 12:56:35;;;;;;;;;;;15.40;99.90;;;;;;5069887;28;19963;-74
2022/11/17 12:59:17;;;;;;;;;;;15.50;99.90;;;;;;5067463;28;20271;-73
2022/11/17 13:01:43;;;;;;;;;;;15.40;99.90;;;;;;5065761;28;20639;-74
2022/11/17 13:04:13;;;;;;;;;;;15.50;99.90;;;;;;5069536;28;19917;-74
2022/11/17 13:06:59;;;;;;;;;;;15.40;99.90;;;;;;5070814;28;19981;-71
2022/11/17 13:09:26;;;;;;;;;;;15.50;99.90;;;;;;5065248;28;19921;-73
2022/11/17 13:12:03;;;;;;;;;;;15.40;99.90;;;;;;5070859;28;19915;-73
2022/11/17 13:14:31;;;;;;;;;;;15.50;99.90;;;;;;5064996;28;19912;-72
2022/11/17 13:16:59;;;;;;;;;;;15.50;99.90;;;;;;5070620;28;20290;-73
2022/11/17 13:19:31;;;;;;;;;;;15.50;99.90;;;;;;5062192;28;19913;-73
2022/11/17 13:22:02;;;;;;;;;;;15.40;99.90;;;;;;5067448;28;20274;-74
2022/11/17 13:24:34;;;;;;;;;;;15.50;99.90;;;;;;5066749;28;20019;-73
2022/11/17 13:27:01;;;;;;;;;;;15.50;99.90;;;;;;5067449;28;19919;-74
2022/11/17 13:29:29;;;;;;;;;;;15.40;99.90;;;;;;5066425;28;19917;-73
2022/11/17 13:32:13;;;;;;;;;;;15.40;99.90;;;;;;5057839;28;19920;-73
2022/11/17 13:34:48;;;;;;;;;;;15.40;99.90;;;;;;5063831;28;19919;-73
2022/11/17 13:37:16;;;;;;;;;;;15.30;99.90;;;;;;5068796;28;19923;-74
2022/11/17 13:39:53;;;;;;;;;;;15.30;99.90;;;;;;5067996;28;19993;-74
2022/11/17 13:42:20;;;;;;;;;;;15.30;99.90;;;;;;5059234;28;20379;-73
2022/11/17 13:44:47;;;;;;;;;;;15.30;99.90;;;;;;5058152;28;19956;-73
2022/11/17 13:47:18;;;;;;;;;;;15.30;99.90;;;;;;5067812;28;19916;-75
2022/11/17 13:49:44;;;;;;;;;;;15.30;99.90;;;;;;5059089;28;19923;-74
2022/11/17 13:52:33;;;;;;;;;;;15.30;99.90;;;;;;5063469;28;20022;-74
2022/11/17 13:55:00;;;;;;;;;;;15.30;99.90;;;;;;5065001;28;20452;-74
2022/11/17 13:57:27;;;;;;;;;;;15.30;99.90;;;;;;5063512;28;19965;-73
2022/11/17 13:59:55;;;;;;;;;;;15.20;99.90;;;;;;5067227;28;19913;-74
2022/11/17 14:02:28;;;;;;;;;;;15.20;99.90;;;;;;5068840;28;20338;-75
2022/11/17 14:05:05;;;;;;;;;;;15.20;99.90;;;;;;5068855;28;19932;-74
2022/11/17 14:07:33;;;;;;;;;;;15.20;99.90;;;;;;5060164;28;20483;-73
2022/11/17 14:10:18;;;;;;;;;;;15.20;99.90;;;;;;5062356;28;20374;-74
2022/11/17 14:12:50;;;;;;;;;;;15.20;99.90;;;;;;5068493;28;21322;-74
2022/11/17 14:15:20;;;;;;;;;;;15.20;99.90;;;;;;5070447;28;20402;-72
2022/11/17 14:17:53;;;;;;;;;;;15.20;99.90;;;;;;5067382;28;19920;-75
2022/11/17 14:20:40;;;;;;;;;;;15.10;99.90;;;;;;5068144;28;20007;-72
2022/11/17 14:23:09;;;;;;;;;;;15.10;99.90;;;;;;5071189;28;20266;-73
2022/11/17 14:25:54;;;;;;;;;;;15.10;99.90;;;;;;5062530;28;20345;-72
2022/11/17 14:28:24;;;;;;;;;;;15.20;99.90;;;;;;5067175;28;20012;-73
2022/11/17 14:30:52;;;;;;;;;;;15.10;99.90;;;;;;5070781;28;19958;-72
2022/11/17 14:33:19;;;;;;;;;;;15.10;99.90;;;;;;5068873;28;20003;-71
2022/11/17 14:35:47;;;;;;;;;;;15.10;99.90;;;;;;5068329;28;19917;-73
2022/11/17 14:38:18;;;;;;;;;;;15.10;99.90;;;;;;5071158;28;19923;-74
2022/11/17 14:40:44;;;;;;;;;;;15.10;99.90;;;;;;5063078;28;19912;-74
2022/11/17 14:43:11;;;;;;;;;;;15.10;99.90;;;;;;5062599;28;20007;-74
2022/11/17 14:45:37;;;;;;;;;;;15.10;99.90;;;;;;5068676;28;19920;-72
2022/11/17 14:48:07;;;;;;;;;;;15.10;99.90;;;;;;5070707;28;19913;-71
2022/11/17 14:50:34;;;;;;;;;;;15.10;99.90;;;;;;5067607;28;19959;-74
2022/11/17 14:53:00;;;;;;;;;;;15.10;99.90;;;;;;5067951;28;19912;-73
2022/11/17 14:55:27;;;;;;;;;;;15.10;99.90;;;;;;5071175;28;19916;-73